sensor_id;sensor_type;location;lat;lon;timestamp;temperature;humidity
67165;SHT31;54093;50.014;19.984;2023-02-04T00:05:48;2.80;87.25
67165;SHT31;54093;50.014;19.984;2023-02-04T00:15:09;2.94;87.31
67165;SHT31;54093;50.014;19.984;2023-02-04T00:24:30;3.01;87.24
67165;SHT31;54093;50.014;19.984;2023-02-04T00:33:51;3.12;87.04
67165;SHT31;54093;50.014;19.984;2023-02-04T00:43:12;3.18;87.25
67165;SHT31;54093;50.014;19.984;2023-02-04T00:52:33;3.18;87.11
67165;SHT31;54093;50.014;19.984;2023-02-04T01:01:54;3.22;87.30
67165;SHT31;54093;50.014;19.984;2023-02-04T01:11:15;3.25;86.70
67165;SHT31;54093;50.014;19.984;2023-02-04T01:20:36;3.25;86.59
67165;SHT31;54093;50.014;19.984;2023-02-04T01:29:58;3.26;86.59
67165;SHT31;54093;50.014;19.984;2023-02-04T01:39:18;3.31;86.05
67165;SHT31;54093;50.014;19.984;2023-02-04T01:48:39;3.29;86.25
67165;SHT31;54093;50.014;19.984;2023-02-04T01:58:00;3.28;86.27
67165;SHT31;54093;50.014;19.984;2023-02-04T02:07:22;3.23;86.34
67165;SHT31;54093;50.014;19.984;2023-02-04T02:16:43;3.25;86.23
67165;SHT31;54093;50.014;19.984;2023-02-04T02:26:05;3.26;86.46
67165;SHT31;54093;50.014;19.984;2023-02-04T02:35:26;3.29;86.01
67165;SHT31;54093;50.014;19.984;2023-02-04T02:44:47;3.14;86.55
67165;SHT31;54093;50.014;19.984;2023-02-04T02:54:20;3.08;86.32
67165;SHT31;54093;50.014;19.984;2023-02-04T03:03:48;3.05;86.23
67165;SHT31;54093;50.014;19.984;2023-02-04T03:13:10;3.02;85.72
67165;SHT31;54093;50.014;19.984;2023-02-04T03:22:32;3.02;85.54
67165;SHT31;54093;50.014;19.984;2023-02-04T03:31:53;2.98;85.34
67165;SHT31;54093;50.014;19.984;2023-02-04T03:41:15;3.00;83.71
67165;SHT31;54093;50.014;19.984;2023-02-04T03:50:36;2.81;83.20
67165;SHT31;54093;50.014;19.984;2023-02-04T03:59:57;2.67;83.77
67165;SHT31;54093;50.014;19.984;2023-02-04T04:09:18;2.60;84.55
67165;SHT31;54093;50.014;19.984;2023-02-04T04:18:39;2.56;84.29
67165;SHT31;54093;50.014;19.984;2023-02-04T04:28:00;2.44;84.78
67165;SHT31;54093;50.014;19.984;2023-02-04T04:37:21;2.26;84.64
67165;SHT31;54093;50.014;19.984;2023-02-04T04:46:42;1.88;83.78
67165;SHT31;54093;50.014;19.984;2023-02-04T04:56:03;1.64;84.04
67165;SHT31;54093;50.014;19.984;2023-02-04T05:05:24;1.40;84.40
67165;SHT31;54093;50.014;19.984;2023-02-04T05:14:45;1.17;84.36
67165;SHT31;54093;50.014;19.984;2023-02-04T05:24:06;1.00;83.26
67165;SHT31;54093;50.014;19.984;2023-02-04T05:33:27;0.89;83.99
67165;SHT31;54093;50.014;19.984;2023-02-04T05:42:48;0.77;84.60
67165;SHT31;54093;50.014;19.984;2023-02-04T05:52:09;0.71;84.99
67165;SHT31;54093;50.014;19.984;2023-02-04T06:01:30;0.61;84.91
67165;SHT31;54093;50.014;19.984;2023-02-04T06:10:58;0.54;84.03
67165;SHT31;54093;50.014;19.984;2023-02-04T06:20:22;0.50;84.66
67165;SHT31;54093;50.014;19.984;2023-02-04T06:29:43;0.41;84.30
67165;SHT31;54093;50.014;19.984;2023-02-04T06:39:04;0.37;84.35
67165;SHT31;54093;50.014;19.984;2023-02-04T06:48:25;0.26;83.84
67165;SHT31;54093;50.014;19.984;2023-02-04T06:57:47;0.21;82.07
67165;SHT31;54093;50.014;19.984;2023-02-04T07:07:10;0.20;82.25
67165;SHT31;54093;50.014;19.984;2023-02-04T07:16:31;0.14;81.50
67165;SHT31;54093;50.014;19.984;2023-02-04T07:25:52;0.07;81.32
67165;SHT31;54093;50.014;19.984;2023-02-04T07:35:13;0.05;80.64
67165;SHT31;54093;50.014;19.984;2023-02-04T07:44:34;0.02;81.22
67165;SHT31;54093;50.014;19.984;2023-02-04T07:53:57;-0.01;80.13
67165;SHT31;54093;50.014;19.984;2023-02-04T08:03:18;-0.01;81.45
67165;SHT31;54093;50.014;19.984;2023-02-04T08:12:39;-0.01;79.95
67165;SHT31;54093;50.014;19.984;2023-02-04T08:22:00;0.05;79.09
67165;SHT31;54093;50.014;19.984;2023-02-04T08:31:21;0.02;78.60
67165;SHT31;54093;50.014;19.984;2023-02-04T08:40:42;0.03;79.28
67165;SHT31;54093;50.014;19.984;2023-02-04T08:50:03;0.03;78.86
67165;SHT31;54093;50.014;19.984;2023-02-04T08:59:24;0.16;78.92
67165;SHT31;54093;50.014;19.984;2023-02-04T09:08:45;0.33;79.72
67165;SHT31;54093;50.014;19.984;2023-02-04T09:18:07;0.44;78.09
67165;SHT31;54093;50.014;19.984;2023-02-04T09:27:35;0.39;78.18
67165;SHT31;54093;50.014;19.984;2023-02-04T09:36:56;0.29;76.96
67165;SHT31;54093;50.014;19.984;2023-02-04T09:46:22;0.34;76.94
67165;SHT31;54093;50.014;19.984;2023-02-04T09:55:46;0.36;77.93
67165;SHT31;54093;50.014;19.984;2023-02-04T10:05:33;0.54;77.20
67165;SHT31;54093;50.014;19.984;2023-02-04T10:14:57;0.51;78.91
67165;SHT31;54093;50.014;19.984;2023-02-04T10:24:24;0.44;78.75
67165;SHT31;54093;50.014;19.984;2023-02-04T10:33:46;0.31;78.89
67165;SHT31;54093;50.014;19.984;2023-02-04T10:43:20;0.27;79.47
67165;SHT31;54093;50.014;19.984;2023-02-04T10:52:51;0.40;78.09
67165;SHT31;54093;50.014;19.984;2023-02-04T11:02:36;0.46;75.38
67165;SHT31;54093;50.014;19.984;2023-02-04T11:11:58;0.47;72.26
67165;SHT31;54093;50.014;19.984;2023-02-04T11:21:24;0.47;74.44
67165;SHT31;54093;50.014;19.984;2023-02-04T11:30:45;0.56;72.48
67165;SHT31;54093;50.014;19.984;2023-02-04T11:40:28;0.62;72.69
67165;SHT31;54093;50.014;19.984;2023-02-04T11:49:55;0.65;71.59
67165;SHT31;54093;50.014;19.984;2023-02-04T11:59:16;0.64;69.75
67165;SHT31;54093;50.014;19.984;2023-02-04T12:08:41;0.50;70.00
67165;SHT31;54093;50.014;19.984;2023-02-04T12:18:07;0.51;72.72
67165;SHT31;54093;50.014;19.984;2023-02-04T12:27:28;0.51;70.75
67165;SHT31;54093;50.014;19.984;2023-02-04T12:36:49;0.64;70.41
67165;SHT31;54093;50.014;19.984;2023-02-04T12:46:10;0.47;69.72
67165;SHT31;54093;50.014;19.984;2023-02-04T12:55:31;0.29;69.46
67165;SHT31;54093;50.014;19.984;2023-02-04T13:04:52;0.13;68.81
67165;SHT31;54093;50.014;19.984;2023-02-04T13:14:13;0.10;69.61
67165;SHT31;54093;50.014;19.984;2023-02-04T13:23:34;0.11;69.93
67165;SHT31;54093;50.014;19.984;2023-02-04T13:32:56;0.84;68.96
67165;SHT31;54093;50.014;19.984;2023-02-04T13:42:17;1.70;68.37
67165;SHT31;54093;50.014;19.984;2023-02-04T13:51:38;2.42;67.08
67165;SHT31;54093;50.014;19.984;2023-02-04T14:00:59;2.74;64.10
67165;SHT31;54093;50.014;19.984;2023-02-04T14:10:20;2.84;62.26
67165;SHT31;54093;50.014;19.984;2023-02-04T14:19:44;1.93;63.56
67165;SHT31;54093;50.014;19.984;2023-02-04T14:29:05;1.27;68.08
67165;SHT31;54093;50.014;19.984;2023-02-04T14:38:26;0.93;67.19
67165;SHT31;54093;50.014;19.984;2023-02-04T14:47:50;0.62;70.36
67165;SHT31;54093;50.014;19.984;2023-02-04T14:57:12;0.41;70.74
67165;SHT31;54093;50.014;19.984;2023-02-04T15:06:33;0.17;70.75
67165;SHT31;54093;50.014;19.984;2023-02-04T15:15:54;0.07;71.30
67165;SHT31;54093;50.014;19.984;2023-02-04T15:25:15;0.02;73.48
67165;SHT31;54093;50.014;19.984;2023-02-04T15:34:36;-0.04;72.42
67165;SHT31;54093;50.014;19.984;2023-02-04T15:44:00;-0.11;73.58
67165;SHT31;54093;50.014;19.984;2023-02-04T15:53:21;-0.25;73.91
67165;SHT31;54093;50.014;19.984;2023-02-04T16:02:42;-0.22;74.20
67165;SHT31;54093;50.014;19.984;2023-02-04T16:12:03;-0.29;74.52
67165;SHT31;54093;50.014;19.984;2023-02-04T16:21:24;-0.28;73.75
67165;SHT31;54093;50.014;19.984;2023-02-04T16:30:45;-0.45;75.46
67165;SHT31;54093;50.014;19.984;2023-02-04T16:40:06;-0.45;75.03
67165;SHT31;54093;50.014;19.984;2023-02-04T16:49:29;-0.50;75.86
67165;SHT31;54093;50.014;19.984;2023-02-04T16:58:50;-0.56;76.18
67165;SHT31;54093;50.014;19.984;2023-02-04T17:08:11;-0.56;75.99
67165;SHT31;54093;50.014;19.984;2023-02-04T17:17:34;-0.59;75.68
67165;SHT31;54093;50.014;19.984;2023-02-04T17:26:55;-0.63;75.68
67165;SHT31;54093;50.014;19.984;2023-02-04T17:36:16;-0.59;76.02
67165;SHT31;54093;50.014;19.984;2023-02-04T17:45:37;-0.72;76.24
67165;SHT31;54093;50.014;19.984;2023-02-04T17:55:00;-0.66;77.04
67165;SHT31;54093;50.014;19.984;2023-02-04T18:04:21;-0.80;78.17
67165;SHT31;54093;50.014;19.984;2023-02-04T18:13:42;-0.81;78.53
67165;SHT31;54093;50.014;19.984;2023-02-04T18:23:08;-0.84;78.80
67165;SHT31;54093;50.014;19.984;2023-02-04T18:32:37;-0.90;79.79
67165;SHT31;54093;50.014;19.984;2023-02-04T18:41:58;-0.90;79.17
67165;SHT31;54093;50.014;19.984;2023-02-04T18:51:39;-0.98;79.95
67165;SHT31;54093;50.014;19.984;2023-02-04T19:10:32;-1.07;80.67
67165;SHT31;54093;50.014;19.984;2023-02-04T19:20:00;-1.05;80.48
67165;SHT31;54093;50.014;19.984;2023-02-04T19:38:43;-1.19;80.21
67165;SHT31;54093;50.014;19.984;2023-02-04T19:57:41;-1.27;78.69
67165;SHT31;54093;50.014;19.984;2023-02-04T20:07:14;-1.18;79.17
67165;SHT31;54093;50.014;19.984;2023-02-04T20:26:07;-1.19;77.04
67165;SHT31;54093;50.014;19.984;2023-02-04T20:44:51;-1.11;78.60
67165;SHT31;54093;50.014;19.984;2023-02-04T20:54:15;-1.09;79.27
67165;SHT31;54093;50.014;19.984;2023-02-04T21:03:39;-1.17;79.95
67165;SHT31;54093;50.014;19.984;2023-02-04T21:13:00;-1.15;80.80
67165;SHT31;54093;50.014;19.984;2023-02-04T21:22:21;-1.18;81.39
67165;SHT31;54093;50.014;19.984;2023-02-04T21:31:42;-1.28;81.14
67165;SHT31;54093;50.014;19.984;2023-02-04T21:41:04;-1.30;81.79
67165;SHT31;54093;50.014;19.984;2023-02-04T21:50:25;-1.22;82.26
67165;SHT31;54093;50.014;19.984;2023-02-04T21:59:46;-1.14;82.43
67165;SHT31;54093;50.014;19.984;2023-02-04T22:09:08;-1.19;82.06
67165;SHT31;54093;50.014;19.984;2023-02-04T22:18:29;-1.19;82.00
67165;SHT31;54093;50.014;19.984;2023-02-04T22:27:50;-1.19;80.94
67165;SHT31;54093;50.014;19.984;2023-02-04T22:37:11;-1.27;79.40
67165;SHT31;54093;50.014;19.984;2023-02-04T22:46:32;-1.34;80.59
67165;SHT31;54093;50.014;19.984;2023-02-04T22:55:53;-1.32;80.64
67165;SHT31;54093;50.014;19.984;2023-02-04T23:05:14;-1.41;79.93
67165;SHT31;54093;50.014;19.984;2023-02-04T23:14:35;-1.51;78.84
67165;SHT31;54093;50.014;19.984;2023-02-04T23:23:56;-1.51;79.65
67165;SHT31;54093;50.014;19.984;2023-02-04T23:33:17;-1.56;79.13
67165;SHT31;54093;50.014;19.984;2023-02-04T23:42:38;-1.65;79.72
67165;SHT31;54093;50.014;19.984;2023-02-04T23:51:59;-1.76;79.77
